Time;durP1;ratioP1;P1;durP2;ratioP2;P2;SDS_P1;SDS_P2;PMS_P1;PMS_P2;Temp;Humidity;BMP_temperature;BMP_pressure;BME280_temperature;BME280_humidity;BME280_pressure;Samples;Min_cycle;Max_cycle;Signal;HPM_P1;HPM_P2
2023/03/12 00:01:59;;;;;;;10.00;4.40;;;1.60;99.90;;;;;;5037260;28;20033;-72
2023/03/12 00:04:25;;;;;;;10.55;4.72;;;1.50;99.90;;;;;;5038095;28;20097;-73
2023/03/12 00:06:51;;;;;;;11.35;4.60;;;1.50;99.90;;;;;;5038172;28;20037;-73
2023/03/12 00:09:16;;;;;;;15.75;5.28;;;1.50;99.90;;;;;;5037532;28;20032;-74
2023/03/12 00:11:42;;;;;;;12.95;4.78;;;1.50;99.90;;;;;;5039243;28;20028;-71
2023/03/12 00:14:07;;;;;;;10.27;4.43;;;1.40;99.90;;;;;;5037346;28;20034;-72
2023/03/12 00:16:33;;;;;;;13.95;5.20;;;1.40;99.90;;;;;;5037622;28;20052;-73
2023/03/12 00:18:58;;;;;;;13.13;4.65;;;1.40;99.90;;;;;;5040201;28;20026;-71
2023/03/12 00:21:25;;;;;;;12.70;4.93;;;1.40;99.90;;;;;;5042773;28;20029;-71
2023/03/12 00:23:51;;;;;;;12.88;4.55;;;1.40;99.90;;;;;;5042885;28;20025;-70
2023/03/12 00:26:18;;;;;;;14.55;4.60;;;1.40;99.90;;;;;;5041344;28;20059;-71
2023/03/12 00:28:44;;;;;;;10.70;4.32;;;1.40;99.90;;;;;;5042007;28;20037;-70
2023/03/12 00:31:21;;;;;;;14.77;5.22;;;1.30;99.90;;;;;;5041462;28;20047;-70
2023/03/12 00:33:48;;;;;;;12.60;4.78;;;1.30;99.90;;;;;;5040918;28;20088;-72
2023/03/12 00:36:15;;;;;;;12.45;4.72;;;1.30;99.90;;;;;;5041419;28;20025;-71
2023/03/12 00:38:41;;;;;;;11.88;4.60;;;1.20;99.90;;;;;;5040382;28;20106;-72
2023/03/12 00:41:07;;;;;;;14.50;4.47;;;1.20;99.90;;;;;;5041074;28;20394;-72
2023/03/12 00:43:32;;;;;;;14.25;5.03;;;1.20;99.90;;;;;;5042662;28;20032;-72
2023/03/12 00:45:58;;;;;;;13.30;5.13;;;1.20;99.90;;;;;;5042591;28;20085;-71
2023/03/12 00:48:24;;;;;;;10.68;4.28;;;1.20;99.90;;;;;;5041183;28;20116;-73
2023/03/12 00:50:49;;;;;;;22.58;5.03;;;1.20;99.90;;;;;;5042199;28;20114;-74
2023/03/12 00:53:15;;;;;;;11.25;4.63;;;1.10;99.90;;;;;;5040542;28;20062;-72
2023/03/12 00:55:40;;;;;;;13.43;4.95;;;1.10;99.90;;;;;;5041037;28;20022;-71
2023/03/12 00:58:06;;;;;;;8.75;4.70;;;1.00;99.90;;;;;;5042462;28;20026;-71
2023/03/12 01:00:32;;;;;;;13.30;5.32;;;1.00;99.90;;;;;;5041712;28;20057;-74
2023/03/12 01:02:57;;;;;;;20.02;5.13;;;1.00;99.90;;;;;;5040048;28;20021;-71
2023/03/12 01:05:23;;;;;;;13.25;5.38;;;1.00;99.90;;;;;;5040483;28;20047;-73
2023/03/12 01:07:48;;;;;;;14.48;5.18;;;1.00;99.90;;;;;;5042103;28;20380;-74
2023/03/12 01:10:16;;;;;;;19.23;5.65;;;1.00;99.90;;;;;;5040442;28;20069;-71
2023/03/12 01:12:41;;;;;;;12.77;4.85;;;1.00;99.90;;;;;;5040379;28;20033;-72
2023/03/12 01:15:09;;;;;;;14.98;5.00;;;1.00;99.90;;;;;;5042049;28;20094;-72
2023/03/12 01:17:34;;;;;;;18.55;5.32;;;1.00;99.90;;;;;;5041381;28;20375;-73
2023/03/12 01:20:00;;;;;;;19.05;5.00;;;0.90;99.90;;;;;;5039426;28;20028;-72
2023/03/12 01:22:26;;;;;;;16.63;4.35;;;0.90;99.90;;;;;;5041233;28;20037;-72
2023/03/12 01:24:51;;;;;;;9.07;4.63;;;0.90;99.90;;;;;;5039693;28;20030;-74
2023/03/12 01:27:17;;;;;;;14.00;4.85;;;0.90;99.90;;;;;;5039964;28;20065;-73
2023/03/12 01:29:42;;;;;;;9.65;3.90;;;0.90;99.90;;;;;;5040544;28;20040;-73
2023/03/12 01:32:08;;;;;;;16.02;4.57;;;0.90;99.90;;;;;;5040755;28;20055;-72
2023/03/12 01:34:34;;;;;;;15.40;4.90;;;0.80;99.90;;;;;;5040093;28;20021;-73
2023/03/12 01:37:00;;;;;;;15.30;4.47;;;0.80;99.90;;;;;;5040774;28;20505;-74
2023/03/12 01:39:26;;;;;;;12.00;4.93;;;0.90;99.90;;;;;;5041160;28;20037;-72
2023/03/12 01:41:52;;;;;;;17.10;4.53;;;0.90;99.90;;;;;;5039453;28;20036;-72
2023/03/12 01:44:17;;;;;;;10.43;4.10;;;0.90;99.90;;;;;;5040099;28;20030;-71
2023/03/12 01:46:44;;;;;;;11.02;4.45;;;0.90;99.90;;;;;;5039683;28;20049;-71
2023/03/12 01:49:27;;;;;;;17.05;5.18;;;0.80;99.90;;;;;;5039508;28;20033;-72
2023/03/12 01:52:12;;;;;;;17.02;4.80;;;0.80;99.90;;;;;;5040955;28;20037;-74
2023/03/12 01:54:42;;;;;;;21.58;5.70;;;0.80;99.90;;;;;;5040947;28;20785;-74
2023/03/12 01:57:12;;;;;;;14.55;5.07;;;0.70;99.90;;;;;;5040765;28;20030;-73
2023/03/12 01:59:45;;;;;;;13.45;4.28;;;0.70;99.90;;;;;;5038221;28;20028;-73
2023/03/12 02:02:17;;;;;;;11.07;3.97;;;0.70;99.90;;;;;;5039163;28;20093;-72
2023/03/12 02:04:44;;;;;;;11.30;4.40;;;0.70;99.90;;;;;;5041000;28;20029;-72
2023/03/12 02:07:13;;;;;;;16.48;5.20;;;0.70;99.90;;;;;;5039588;28;20045;-72
2023/03/12 02:09:42;;;;;;;13.30;5.00;;;0.70;99.90;;;;;;5039395;28;20032;-73
2023/03/12 02:12:08;;;;;;;12.05;5.30;;;0.70;99.90;;;;;;5039498;28;20531;-72
2023/03/12 02:14:35;;;;;;;9.82;5.20;;;0.60;99.90;;;;;;5040722;28;20021;-73
2023/03/12 02:17:01;;;;;;;17.02;4.80;;;0.70;99.90;;;;;;5040203;28;20089;-72
2023/03/12 02:19:51;;;;;;;12.80;5.43;;;0.60;99.90;;;;;;5039174;28;20109;-72
2023/03/12 02:22:18;;;;;;;11.90;5.68;;;0.60;99.90;;;;;;5040837;28;20041;-72
2023/03/12 02:24:47;;;;;;;14.52;5.32;;;0.50;99.90;;;;;;5040360;28;20048;-71
2023/03/12 02:27:12;;;;;;;10.38;5.00;;;0.50;99.90;;;;;;5038248;28;20125;-72
2023/03/12 02:29:40;;;;;;;10.13;5.40;;;0.50;99.90;;;;;;5039130;28;20068;-73
2023/03/12 02:32:08;;;;;;;11.48;5.43;;;0.40;99.90;;;;;;5038207;28;20100;-71
2023/03/12 02:34:34;;;;;;;13.20;5.70;;;0.40;99.90;;;;;;5038771;28;20025;-71
2023/03/12 02:37:01;;;;;;;9.60;4.97;;;0.40;99.90;;;;;;5038899;28;20030;-70
2023/03/12 02:39:27;;;;;;;13.40;5.93;;;0.40;99.90;;;;;;5039259;28;20034;-71
2023/03/12 02:41:58;;;;;;;15.95;5.35;;;0.40;99.90;;;;;;5038887;28;20085;-71
2023/03/12 02:44:30;;;;;;;18.05;5.80;;;0.40;99.90;;;;;;5038417;28;20471;-70
2023/03/12 02:46:57;;;;;;;12.50;5.88;;;0.30;99.90;;;;;;5040218;28;20033;-70
2023/03/12 02:49:26;;;;;;;11.93;6.43;;;0.30;99.90;;;;;;5039811;28;20044;-72
2023/03/12 02:51:52;;;;;;;14.73;6.38;;;0.30;99.90;;;;;;5038837;28;20085;-71
2023/03/12 02:54:19;;;;;;;15.85;6.38;;;0.30;99.90;;;;;;5039946;28;20025;-72
2023/03/12 02:56:45;;;;;;;14.25;6.35;;;0.30;99.90;;;;;;5038744;28;20390;-72
2023/03/12 02:59:13;;;;;;;17.63;5.75;;;0.30;99.90;;;;;;5038308;28;20029;-71
2023/03/12 03:01:39;;;;;;;11.48;5.75;;;0.30;99.90;;;;;;5039275;28;20013;-72
2023/03/12 03:04:07;;;;;;;13.90;5.82;;;0.30;99.90;;;;;;5039473;28;20057;-72
2023/03/12 03:06:34;;;;;;;11.13;6.03;;;0.20;99.90;;;;;;5039034;28;20039;-71
2023/03/12 03:09:00;;;;;;;15.77;6.28;;;0.20;99.90;;;;;;5039329;28;20117;-72
2023/03/12 03:11:25;;;;;;;17.23;6.40;;;0.20;99.90;;;;;;5038233;28;20069;-72
2023/03/12 03:13:52;;;;;;;14.02;6.25;;;0.20;99.90;;;;;;5038514;28;20029;-71
2023/03/12 03:16:18;;;;;;;14.45;6.38;;;0.20;99.90;;;;;;5039341;28;20101;-71
2023/03/12 03:18:43;;;;;;;13.70;6.18;;;0.20;99.90;;;;;;5038401;28;20394;-72
2023/03/12 03:21:15;;;;;;;18.55;7.20;;;0.10;99.90;;;;;;5038362;28;20103;-72
2023/03/12 03:23:42;;;;;;;18.88;7.15;;;0.10;99.90;;;;;;5039002;28;20029;-73
2023/03/12 03:26:08;;;;;;;14.27;6.47;;;0.10;99.90;;;;;;5037754;28;20033;-72
2023/03/12 03:28:33;;;;;;;17.02;6.72;;;0.10;99.90;;;;;;5039871;28;20072;-73
2023/03/12 03:31:02;;;;;;;15.35;6.45;;;0.10;99.90;;;;;;5039210;28;20025;-74
2023/03/12 03:33:29;;;;;;;12.77;6.28;;;0.10;99.90;;;;;;5037888;28;20070;-72
2023/03/12 03:35:56;;;;;;;21.38;7.00;;;0.10;99.90;;;;;;5037411;28;20072;-72
2023/03/12 03:38:22;;;;;;;16.48;6.50;;;0.10;99.90;;;;;;5038230;28;20061;-72
2023/03/12 03:40:48;;;;;;;17.38;6.50;;;0.10;99.90;;;;;;5039005;28;20462;-72
2023/03/12 03:43:14;;;;;;;14.40;6.60;;;0.20;99.90;;;;;;5038093;28;20033;-73
2023/03/12 03:45:40;;;;;;;18.23;9.15;;;0.20;99.90;;;;;;5039476;28;20046;-73
2023/03/12 03:48:05;;;;;;;14.65;8.15;;;0.10;99.90;;;;;;5039603;28;20067;-72
2023/03/12 03:50:31;;;;;;;21.75;9.38;;;0.10;99.90;;;;;;5037319;28;20041;-74
2023/03/12 03:52:57;;;;;;;22.85;9.70;;;0.10;99.90;;;;;;5038400;28;20025;-73
2023/03/12 03:55:22;;;;;;;27.05;10.43;;;0.10;99.90;;;;;;5041324;28;20040;-71
2023/03/12 03:57:48;;;;;;;26.42;10.48;;;0.10;99.90;;;;;;5043337;28;20033;-72
2023/03/12 04:00:16;;;;;;;23.58;10.18;;;0.10;99.90;;;;;;5040657;28;20060;-71
2023/03/12 04:02:42;;;;;;;19.10;9.15;;;0.10;99.90;;;;;;5042087;28;20079;-72
2023/03/12 04:05:09;;;;;;;23.45;9.68;;;0.10;99.90;;;;;;5040929;28;20025;-71
2023/03/12 04:07:35;;;;;;;20.50;9.65;;;0.10;99.90;;;;;;5040669;28;20107;-73
2023/03/12 04:10:02;;;;;;;23.00;10.13;;;0.10;99.90;;;;;;5040226;28;20035;-70
2023/03/12 04:12:28;;;;;;;23.13;9.68;;;0.10;99.90;;;;;;5041089;28;20025;-72
2023/03/12 04:14:54;;;;;;;18.33;9.35;;;0.10;99.90;;;;;;5040905;28;20087;-72
2023/03/12 04:17:20;;;;;;;19.85;9.50;;;0.10;99.90;;;;;;5042340;28;20116;-71
2023/03/12 04:19:46;;;;;;;21.38;10.18;;;0.20;99.90;;;;;;5040391;28;20018;-73
2023/03/12 04:22:11;;;;;;;20.63;10.35;;;0.20;99.90;;;;;;5041300;28;20033;-71
2023/03/12 04:24:37;;;;;;;23.92;9.48;;;0.20;99.90;;;;;;5042078;28;20136;-74
2023/03/12 04:27:03;;;;;;;16.83;9.50;;;0.20;99.90;;;;;;5042178;28;20151;-70
2023/03/12 04:29:28;;;;;;;18.08;9.10;;;0.20;99.90;;;;;;5042215;28;20479;-73
2023/03/12 04:31:54;;;;;;;19.08;7.85;;;0.20;99.90;;;;;;5040272;28;20036;-71
2023/03/12 04:34:20;;;;;;;20.55;8.90;;;0.20;99.90;;;;;;5040607;28;20017;-71
2023/03/12 04:36:46;;;;;;;16.73;8.20;;;0.20;99.90;;;;;;5041755;28;20029;-72
2023/03/12 04:39:15;;;;;;;16.58;8.77;;;0.20;99.90;;;;;;5041870;28;20036;-73
2023/03/12 04:41:40;;;;;;;15.40;8.38;;;0.20;99.90;;;;;;5041950;28;20022;-73
2023/03/12 04:44:06;;;;;;;16.35;8.52;;;0.20;99.90;;;;;;5041587;28;20056;-73
2023/03/12 04:46:32;;;;;;;22.00;9.23;;;0.30;99.90;;;;;;5041346;28;20041;-73
2023/03/12 04:49:01;;;;;;;17.92;9.00;;;0.30;99.90;;;;;;5041978;28;20084;-73
2023/03/12 04:51:27;;;;;;;17.85;8.88;;;0.20;99.90;;;;;;5041851;28;20048;-72
2023/03/12 04:53:52;;;;;;;18.30;9.20;;;0.20;99.90;;;;;;5042025;28;20029;-73
2023/03/12 04:56:18;;;;;;;18.40;8.95;;;0.30;99.90;;;;;;5041264;28;20061;-72
2023/03/12 04:58:43;;;;;;;20.10;9.02;;;0.20;99.90;;;;;;5040590;28;20025;-72
2023/03/12 05:01:26;;;;;;;21.27;8.80;;;0.20;99.90;;;;;;5040832;28;20010;-74
2023/03/12 05:03:51;;;;;;;15.23;8.98;;;0.20;99.90;;;;;;5041763;28;20764;-74
2023/03/12 05:06:17;;;;;;;17.15;8.88;;;0.20;99.90;;;;;;5040325;28;20045;-74
2023/03/12 05:08:43;;;;;;;17.85;8.57;;;0.20;99.90;;;;;;5040401;28;20585;-73
2023/03/12 05:11:08;;;;;;;18.73;9.05;;;0.20;99.90;;;;;;5041514;28;20029;-73
2023/03/12 05:13:34;;;;;;;21.50;9.10;;;0.20;99.90;;;;;;5042061;28;20025;-73
2023/03/12 05:16:00;;;;;;;15.88;9.00;;;0.20;99.90;;;;;;5041655;28;20048;-73
2023/03/12 05:18:26;;;;;;;15.98;9.70;;;0.20;99.90;;;;;;5040709;28;20033;-74
2023/03/12 05:21:06;;;;;;;22.20;9.68;;;0.10;99.90;;;;;;5040121;28;20056;-74
2023/03/12 05:23:32;;;;;;;18.98;9.23;;;0.10;99.90;;;;;;5041622;28;20128;-74
2023/03/12 05:25:58;;;;;;;21.67;9.75;;;0.10;99.90;;;;;;5041513;28;20055;-73
2023/03/12 05:28:27;;;;;;;17.83;9.02;;;0.10;99.90;;;;;;5041375;28;20534;-72
2023/03/12 05:30:59;;;;;;;18.58;9.43;;;0.10;99.90;;;;;;5040734;28;20089;-73
2023/03/12 05:33:27;;;;;;;16.65;9.10;;;0.10;99.90;;;;;;5040653;28;20038;-73
2023/03/12 05:35:53;;;;;;;16.08;9.07;;;0.00;99.90;;;;;;5039488;28;20049;-74
2023/03/12 05:38:19;;;;;;;21.15;9.23;;;0.00;99.90;;;;;;5041442;28;20030;-73
2023/03/12 05:40:56;;;;;;;18.42;9.50;;;0.10;99.90;;;;;;5041059;28;20034;-72
2023/03/12 05:43:22;;;;;;;16.98;9.38;;;0.10;99.90;;;;;;5039976;28;20124;-74
2023/03/12 05:45:48;;;;;;;17.17;9.40;;;0.00;99.90;;;;;;5038408;28;20649;-72
2023/03/12 05:48:13;;;;;;;16.58;9.40;;;0.00;99.90;;;;;;5040945;28;20116;-73
2023/03/12 05:50:39;;;;;;;16.33;8.40;;;0.00;99.90;;;;;;5041317;28;20033;-73
2023/03/12 05:53:04;;;;;;;16.73;8.75;;;0.00;99.90;;;;;;5040008;28;20022;-75
2023/03/12 05:55:35;;;;;;;16.55;9.07;;;0.00;99.90;;;;;;5040225;28;20026;-72
2023/03/12 05:58:01;;;;;;;20.15;8.88;;;0.00;99.90;;;;;;5039473;28;20029;-73
2023/03/12 06:00:27;;;;;;;20.75;9.10;;;-0.10;99.90;;;;;;5041215;28;20097;-73
2023/03/12 06:02:53;;;;;;;17.45;8.98;;;0.00;99.90;;;;;;5040630;28;20021;-72
2023/03/12 06:05:18;;;;;;;21.17;9.90;;;0.00;99.90;;;;;;5040878;28;20032;-72
2023/03/12 06:07:44;;;;;;;19.95;10.18;;;0.00;99.90;;;;;;5040042;28;20092;-74
2023/03/12 06:10:11;;;;;;;23.85;9.70;;;0.00;99.90;;;;;;5041959;28;20037;-74
2023/03/12 06:12:36;;;;;;;23.25;11.00;;;0.00;99.90;;;;;;5039561;28;20161;-73
2023/03/12 06:15:02;;;;;;;28.13;13.65;;;0.00;99.90;;;;;;5040215;28;20475;-74
2023/03/12 06:17:30;;;;;;;23.98;12.88;;;0.00;99.90;;;;;;5038790;28;20029;-73
2023/03/12 06:19:56;;;;;;;29.40;13.48;;;0.00;99.90;;;;;;5041110;28;20032;-73
2023/03/12 06:22:22;;;;;;;28.50;12.25;;;0.00;99.90;;;;;;5041150;28;20029;-73
2023/03/12 06:24:48;;;;;;;26.88;11.30;;;0.10;99.90;;;;;;5041291;28;20032;-71
2023/03/12 06:27:14;;;;;;;24.02;9.95;;;0.10;99.90;;;;;;5037812;28;20059;-72
2023/03/12 06:29:39;;;;;;;22.70;10.27;;;0.10;99.90;;;;;;5041042;28;20060;-72
2023/03/12 06:32:05;;;;;;;19.13;9.25;;;0.10;99.90;;;;;;5040075;28;20034;-71
2023/03/12 06:34:31;;;;;;;17.83;8.30;;;0.10;99.90;;;;;;5039114;28;20044;-70
2023/03/12 06:36:57;;;;;;;18.13;8.45;;;0.10;99.90;;;;;;5040072;28;20018;-72
2023/03/12 06:39:23;;;;;;;16.15;7.60;;;0.10;99.90;;;;;;5040494;28;20017;-71
2023/03/12 06:41:48;;;;;;;16.05;8.20;;;0.20;99.90;;;;;;5041159;28;20033;-70
2023/03/12 06:44:14;;;;;;;17.52;8.55;;;0.20;99.90;;;;;;5040817;28;20064;-71
2023/03/12 06:46:40;;;;;;;19.65;7.95;;;0.20;99.90;;;;;;5038135;28;20037;-70
2023/03/12 06:49:06;;;;;;;18.80;7.47;;;0.20;99.90;;;;;;5039468;28;20391;-72
2023/03/12 06:51:31;;;;;;;19.35;7.90;;;0.30;99.90;;;;;;5040734;28;20040;-71
2023/03/12 06:53:57;;;;;;;20.95;7.43;;;0.30;99.90;;;;;;5039435;28;20040;-72
2023/03/12 06:56:22;;;;;;;16.25;7.85;;;0.40;99.90;;;;;;5038864;28;20026;-72
2023/03/12 06:58:48;;;;;;;18.17;7.45;;;0.50;99.90;;;;;;5040081;28;20026;-72
2023/03/12 07:01:15;;;;;;;13.35;7.40;;;0.50;99.90;;;;;;5037424;28;20116;-72
2023/03/12 07:03:41;;;;;;;16.00;7.63;;;0.50;99.90;;;;;;5039295;28;20033;-71
2023/03/12 07:06:16;;;;;;;10.80;6.50;;;0.60;99.90;;;;;;5038328;28;20513;-73
2023/03/12 07:08:41;;;;;;;20.25;7.28;;;0.60;99.90;;;;;;5037410;28;20038;-72
2023/03/12 07:11:08;;;;;;;12.43;6.95;;;0.60;99.90;;;;;;5039242;28;20390;-70
2023/03/12 07:13:34;;;;;;;12.48;6.63;;;0.70;99.90;;;;;;5039392;28;20029;-72
2023/03/12 07:16:00;;;;;;;16.40;6.97;;;0.70;99.90;;;;;;5039023;28;20099;-71
2023/03/12 07:18:25;;;;;;;16.33;6.60;;;0.70;99.90;;;;;;5038642;28;20053;-70
2023/03/12 07:20:51;;;;;;;15.10;7.05;;;0.80;99.90;;;;;;5039317;28;20022;-70
2023/03/12 07:23:17;;;;;;;14.00;7.40;;;0.90;99.90;;;;;;5037560;28;20037;-71
2023/03/12 07:25:43;;;;;;;12.90;6.13;;;1.00;99.90;;;;;;5040443;28;20045;-73
2023/03/12 07:28:10;;;;;;;14.20;7.10;;;1.10;99.90;;;;;;5038949;28;20041;-71
2023/03/12 07:30:36;;;;;;;14.52;7.00;;;1.10;99.90;;;;;;5040125;28;20048;-70
2023/03/12 07:33:03;;;;;;;18.48;7.65;;;1.20;99.90;;;;;;5043557;28;20506;-71
2023/03/12 07:35:29;;;;;;;15.27;6.93;;;1.30;99.90;;;;;;5043117;28;20029;-70
2023/03/12 07:37:54;;;;;;;15.13;6.05;;;1.40;99.90;;;;;;5043359;28;20052;-70
2023/03/12 07:40:21;;;;;;;16.10;6.88;;;1.40;99.90;;;;;;5041935;28;20021;-70
2023/03/12 07:42:46;;;;;;;15.77;6.63;;;1.40;99.90;;;;;;5043623;28;20033;-71
2023/03/12 07:45:12;;;;;;;15.02;7.00;;;1.40;99.90;;;;;;5042946;28;20021;-70
2023/03/12 07:47:37;;;;;;;12.07;7.20;;;1.40;99.90;;;;;;5045526;28;20028;-72
2023/03/12 07:50:03;;;;;;;16.17;7.13;;;1.30;99.90;;;;;;5046745;28;20772;-70
2023/03/12 07:52:29;;;;;;;19.38;7.95;;;1.30;99.90;;;;;;5045941;28;20033;-71
2023/03/12 07:54:55;;;;;;;15.32;7.90;;;1.40;99.90;;;;;;5044297;28;20025;-71
2023/03/12 07:57:21;;;;;;;13.02;7.63;;;1.40;99.90;;;;;;5042923;28;20021;-71
2023/03/12 07:59:47;;;;;;;15.38;7.45;;;1.40;99.90;;;;;;5042493;28;20056;-72
2023/03/12 08:02:13;;;;;;;17.77;7.47;;;1.50;99.90;;;;;;5044332;28;20025;-71
2023/03/12 08:04:38;;;;;;;17.23;8.20;;;1.50;99.90;;;;;;5044370;28;20081;-70
2023/03/12 08:07:04;;;;;;;12.75;7.03;;;1.50;99.90;;;;;;5043471;28;20060;-70
2023/03/12 08:09:31;;;;;;;13.35;7.53;;;1.50;99.90;;;;;;5044187;28;20030;-70
2023/03/12 08:11:57;;;;;;;15.68;7.90;;;1.50;99.90;;;;;;5042008;28;20029;-71
2023/03/12 08:14:22;;;;;;;20.52;8.95;;;1.50;99.90;;;;;;5042532;28;20031;-69
2023/03/12 08:16:48;;;;;;;18.17;9.38;;;1.50;99.90;;;;;;5043724;28;20032;-70
2023/03/12 08:19:13;;;;;;;13.82;8.02;;;1.60;99.90;;;;;;5043723;28;20056;-70
2023/03/12 08:21:39;;;;;;;13.23;7.43;;;1.60;99.90;;;;;;5043880;28;20081;-71
2023/03/12 08:24:05;;;;;;;18.60;8.25;;;1.70;99.90;;;;;;5043501;28;20052;-70
2023/03/12 08:26:30;;;;;;;16.00;6.40;;;1.80;99.90;;;;;;5043169;28;20052;-70
2023/03/12 08:28:56;;;;;;;18.98;9.05;;;1.90;99.90;;;;;;5043054;28;20048;-70
2023/03/12 08:31:22;;;;;;;13.27;8.20;;;1.90;99.90;;;;;;5042762;28;20025;-69
2023/03/12 08:33:47;;;;;;;17.27;8.35;;;2.00;99.90;;;;;;5042374;28;20033;-70
2023/03/12 08:36:13;;;;;;;18.55;9.02;;;2.00;99.90;;;;;;5042218;28;20105;-69
2023/03/12 08:38:38;;;;;;;19.50;8.90;;;2.10;99.90;;;;;;5043690;28;20022;-69
2023/03/12 08:41:04;;;;;;;19.83;9.57;;;2.20;99.90;;;;;;5042418;28;20043;-70
2023/03/12 08:43:30;;;;;;;17.42;8.75;;;2.40;99.90;;;;;;5043254;28;21714;-70
2023/03/12 08:45:57;;;;;;;13.55;8.32;;;2.60;99.90;;;;;;5042588;28;20045;-68
2023/03/12 08:48:23;;;;;;;16.80;8.63;;;2.80;99.90;;;;;;5040350;28;20021;-69
2023/03/12 08:50:49;;;;;;;15.20;8.52;;;2.80;99.90;;;;;;5041503;28;20024;-70
2023/03/12 08:53:14;;;;;;;17.73;8.32;;;2.90;99.90;;;;;;5042909;28;20029;-70
2023/03/12 08:55:40;;;;;;;16.50;8.35;;;3.00;99.90;;;;;;5042796;28;20045;-69
2023/03/12 08:58:06;;;;;;;16.83;7.80;;;3.20;99.90;;;;;;5042095;28;20091;-71
2023/03/12 09:00:31;;;;;;;16.98;8.27;;;3.30;99.90;;;;;;5042157;28;20946;-71
2023/03/12 09:02:57;;;;;;;14.55;7.93;;;3.50;99.90;;;;;;5040354;28;20021;-72
2023/03/12 09:05:24;;;;;;;16.95;7.55;;;3.50;99.90;;;;;;5040303;28;20030;-70
2023/03/12 09:07:49;;;;;;;17.63;7.60;;;3.40;99.90;;;;;;5041808;28;20060;-71
2023/03/12 09:10:16;;;;;;;18.42;7.88;;;3.30;99.90;;;;;;5035158;28;20046;-70
2023/03/12 09:12:43;;;;;;;14.02;7.30;;;3.30;99.90;;;;;;5032193;28;20025;-72
2023/03/12 09:15:09;;;;;;;18.90;8.35;;;3.30;99.90;;;;;;5039440;28;20589;-71
2023/03/12 09:17:35;;;;;;;16.10;8.60;;;3.50;99.90;;;;;;5041121;28;20040;-69
2023/03/12 09:20:06;;;;;;;22.75;7.57;;;3.60;99.90;;;;;;5041657;28;20025;-72
2023/03/12 09:22:32;;;;;;;14.10;7.80;;;3.80;99.90;;;;;;5040951;28;20033;-69
2023/03/12 09:24:57;;;;;;;14.38;6.85;;;3.90;99.90;;;;;;5040205;28;20068;-72
2023/03/12 09:27:23;;;;;;;18.13;7.30;;;4.00;99.90;;;;;;5032121;28;20053;-70
2023/03/12 09:29:50;;;;;;;14.43;7.32;;;4.00;99.90;;;;;;5039878;28;20032;-71
2023/03/12 09:32:16;;;;;;;15.00;7.63;;;4.10;99.90;;;;;;5041703;28;20053;-70
2023/03/12 09:34:41;;;;;;;13.93;6.95;;;4.30;99.90;;;;;;5040153;28;20021;-73
2023/03/12 09:37:07;;;;;;;14.77;7.15;;;4.20;99.90;;;;;;5042255;28;20021;-71
2023/03/12 09:39:32;;;;;;;14.65;7.53;;;4.20;99.90;;;;;;5042084;28;20041;-70
2023/03/12 09:41:58;;;;;;;14.88;7.25;;;4.20;99.90;;;;;;5039917;28;20681;-71
2023/03/12 09:44:40;;;;;;;13.88;7.22;;;4.20;99.90;;;;;;5040383;28;20036;-71
2023/03/12 09:47:26;;;;;;;16.77;7.05;;;4.40;99.90;;;;;;5039214;28;20458;-69
2023/03/12 09:50:02;;;;;;;12.45;7.07;;;4.40;99.90;;;;;;5038997;28;20033;-70
2023/03/12 09:52:47;;;;;;;15.43;7.07;;;4.40;99.90;;;;;;5040152;28;20083;-72
2023/03/12 09:55:18;;;;;;;18.33;7.50;;;4.50;99.90;;;;;;5038595;28;20482;-70
2023/03/12 09:57:45;;;;;;;17.58;6.28;;;4.60;99.90;;;;;;5038822;28;20037;-68
2023/03/12 10:00:14;;;;;;;13.40;6.90;;;4.60;99.90;;;;;;5039473;28;20022;-72
2023/03/12 10:03:22;;;;;;;12.50;6.95;;;4.60;99.90;;;;;;5041480;28;20057;-73
2023/03/12 10:06:02;;;;;;;12.00;6.60;;;4.60;99.90;;;;;;5050573;28;20157;-72
2023/03/12 10:08:31;;;;;;;12.48;5.95;;;4.60;99.90;;;;;;5038851;28;20060;-72
2023/03/12 10:11:10;;;;;;;11.07;6.40;;;4.70;99.90;;;;;;5039289;28;20021;-72
2023/03/12 10:13:57;;;;;;;17.85;6.75;;;4.90;99.90;;;;;;5038992;28;20030;-72
2023/03/12 10:16:55;;;;;;;13.68;6.18;;;5.10;99.90;;;;;;5037957;28;20033;-71
2023/03/12 10:19:33;;;;;;;11.75;6.15;;;5.30;99.90;;;;;;5039091;28;20060;-72
2023/03/12 10:22:16;;;;;;;15.38;7.80;;;5.40;99.90;;;;;;5039962;28;20049;-70
2023/03/12 10:25:06;;;;;;;14.40;6.53;;;5.40;99.90;;;;;;5040984;28;20049;-70
2023/03/12 10:27:35;;;;;;;11.00;5.78;;;5.40;99.90;;;;;;5039491;28;20236;-70
2023/03/12 10:30:11;;;;;;;13.68;5.68;;;5.40;99.90;;;;;;5039610;28;20040;-72
2023/03/12 10:32:46;;;;;;;17.92;6.72;;;5.50;99.90;;;;;;5038998;28;20029;-71
2023/03/12 10:35:18;;;;;;;11.18;5.25;;;5.60;99.90;;;;;;5041811;28;20047;-71
2023/03/12 10:37:49;;;;;;;8.93;5.07;;;5.60;99.90;;;;;;5039184;28;20041;-70
2023/03/12 10:40:18;;;;;;;11.98;5.60;;;5.60;99.90;;;;;;5040563;28;20036;-71
2023/03/12 10:42:44;;;;;;;11.70;6.15;;;5.60;99.90;;;;;;5040294;28;20085;-71
2023/03/12 10:45:09;;;;;;;16.58;6.80;;;5.40;99.90;;;;;;5040880;28;20059;-71
2023/03/12 10:47:38;;;;;;;12.52;5.38;;;5.40;99.90;;;;;;5036323;28;20042;-69
2023/03/12 10:50:24;;;;;;;12.48;6.03;;;5.20;99.90;;;;;;5039731;28;20029;-69
2023/03/12 10:53:11;;;;;;;15.15;6.15;;;5.20;99.90;;;;;;5040403;28;20022;-69
2023/03/12 10:55:37;;;;;;;14.38;6.03;;;5.10;99.90;;;;;;5039994;28;20390;-71
2023/03/12 10:58:02;;;;;;;12.90;6.15;;;5.00;99.90;;;;;;5037986;28;20038;-70
2023/03/12 11:00:31;;;;;;;19.75;6.57;;;4.90;99.90;;;;;;5038182;28;20029;-70
2023/03/12 11:02:57;;;;;;;16.80;6.18;;;4.90;99.90;;;;;;5039858;28;20025;-72
2023/03/12 11:05:35;;;;;;;12.15;6.35;;;4.90;99.90;;;;;;5040325;28;20021;-72
2023/03/12 11:08:02;;;;;;;12.82;6.50;;;5.00;99.90;;;;;;5039718;28;20022;-71
2023/03/12 11:10:46;;;;;;;12.60;6.05;;;5.00;99.90;;;;;;5038790;28;20022;-71
2023/03/12 11:13:25;;;;;;;16.05;5.85;;;5.10;99.90;;;;;;5038558;28;20029;-71
2023/03/12 11:15:52;;;;;;;15.60;6.05;;;5.10;99.90;;;;;;5040379;28;20478;-71
2023/03/12 11:18:28;;;;;;;12.82;5.63;;;5.10;99.90;;;;;;5041272;28;20025;-73
2023/03/12 11:21:09;;;;;;;12.73;5.57;;;5.00;99.90;;;;;;5039590;28;20128;-72
2023/03/12 11:23:37;;;;;;;12.75;5.47;;;5.00;99.90;;;;;;5035083;28;20030;-74
2023/03/12 11:26:11;;;;;;;15.90;6.35;;;5.00;99.90;;;;;;5037481;28;20037;-69
2023/03/12 11:28:42;;;;;;;14.50;5.72;;;4.90;99.90;;;;;;5033822;28;20057;-71
2023/03/12 11:31:19;;;;;;;17.48;6.95;;;4.80;99.90;;;;;;5036880;28;20032;-71
2023/03/12 11:33:45;;;;;;;35.78;18.70;;;4.80;99.90;;;;;;5038787;28;20702;-72
2023/03/12 11:36:16;;;;;;;13.23;8.38;;;4.80;99.90;;;;;;5038395;28;20017;-68
2023/03/12 11:39:02;;;;;;;12.93;6.32;;;4.80;99.90;;;;;;5039078;28;20045;-71
2023/03/12 11:41:35;;;;;;;11.90;5.30;;;4.70;99.90;;;;;;5039212;28;20091;-70
2023/03/12 11:44:12;;;;;;;10.20;4.90;;;4.70;99.90;;;;;;5036665;28;20124;-69
2023/03/12 11:46:57;;;;;;;18.30;3.40;;;4.50;99.90;;;;;;5039448;28;20042;-71
2023/03/12 11:49:48;;;;;;;11.85;5.78;;;4.40;99.90;;;;;;5037336;28;20022;-74
2023/03/12 11:52:49;;;;;;;11.05;3.47;;;4.30;99.90;;;;;;5040442;28;20056;-72
2023/03/12 11:55:17;;;;;;;11.70;4.00;;;4.10;99.90;;;;;;5029817;28;20136;-71
2023/03/12 11:57:58;;;;;;;14.40;5.07;;;3.80;99.90;;;;;;5036147;28;20026;-74
2023/03/12 12:01:00;;;;;;;7.07;3.30;;;3.80;99.90;;;;;;5040460;28;20060;-72
2023/03/12 12:03:51;;;;;;;11.35;4.93;;;3.70;99.90;;;;;;5039692;28;20486;-70
2023/03/12 12:06:30;;;;;;;12.40;4.80;;;3.60;99.90;;;;;;5039120;28;20037;-71
2023/03/12 12:09:32;;;;;;;12.98;4.75;;;3.50;99.90;;;;;;5038126;28;20033;-72
2023/03/12 12:12:10;;;;;;;10.35;5.55;;;3.40;99.90;;;;;;5039318;28;20037;-72
2023/03/12 12:15:17;;;;;;;12.73;5.78;;;3.40;99.90;;;;;;5038933;28;20036;-71
2023/03/12 12:18:28;;;;;;;11.23;6.15;;;3.30;99.90;;;;;;5038565;28;20047;-72
2023/03/12 12:21:12;;;;;;;11.48;5.80;;;3.30;99.90;;;;;;5044535;28;20032;-71
2023/03/12 12:24:02;;;;;;;12.50;6.30;;;3.20;99.90;;;;;;5044285;28;20040;-71
2023/03/12 12:26:56;;;;;;;15.95;7.32;;;3.20;99.90;;;;;;5042624;28;20057;-73
2023/03/12 12:30:03;;;;;;;13.18;7.47;;;3.10;99.90;;;;;;5056427;28;20046;-72
2023/03/12 12:33:06;;;;;;;18.17;7.72;;;3.10;99.90;;;;;;4999474;28;20034;-71
2023/03/12 12:35:35;;;;;;;17.63;6.63;;;3.00;99.90;;;;;;5043020;28;20025;-71
2023/03/12 12:38:17;;;;;;;10.25;5.80;;;2.90;99.90;;;;;;5041797;28;20596;-72
2023/03/12 12:40:52;;;;;;;16.48;8.52;;;2.90;99.90;;;;;;5042754;28;20032;-73
2023/03/12 12:43:31;;;;;;;21.17;8.52;;;2.90;99.90;;;;;;5042316;28;20043;-74
2023/03/12 12:46:03;;;;;;;20.55;9.00;;;2.90;99.90;;;;;;5042940;28;20057;-73
2023/03/12 12:48:35;;;;;;;15.07;8.02;;;2.90;99.90;;;;;;5042037;28;20014;-69
2023/03/12 12:51:03;;;;;;;22.38;9.73;;;2.90;99.90;;;;;;5043547;28;20093;-72
2023/03/12 12:53:49;;;;;;;19.60;9.77;;;2.90;99.90;;;;;;5041228;28;20029;-72
2023/03/12 12:57:07;;;;;;;25.70;10.65;;;2.80;99.90;;;;;;5042504;28;20022;-72
2023/03/12 12:59:38;;;;;;;21.00;9.40;;;2.90;99.90;;;;;;5018424;28;20092;-73